This is the latest recevied weather packets stored in our database for station/object KI7JYE. If no packets are shown the sender has not sent any weather packets the latest 10 day(s).
| Time | Temp. | Humidity | Pressure | Rain* | Wind** | Luminosity | Snow |
|---|---|---|---|---|---|---|---|
| 1778010445 | 15.56° C | 76% | 1015.6 hPa | 0 mm | - | 201 W/m² | - |
| 1778010141 | 16.11° C | 75% | 1015.6 hPa | 0 mm | - | 177 W/m² | - |
| 1778009837 | 15.56° C | 76% | 1015.7 hPa | 0 mm | - | 162 W/m² | - |
| 1778009534 | 15.56° C | 75% | 1015.9 hPa | 0 mm | - | 155 W/m² | - |
| 1778009233 | 15.56° C | 75% | 1015.6 hPa | 0 mm | - | 161 W/m² | - |
| 1778008930 | 15.56° C | 76% | 1015.7 hPa | 0 mm | - | 167 W/m² | - |
| 1778008628 | 15.56° C | 76% | 1015.8 hPa | 0 mm | - | 167 W/m² | - |
| 1778008326 | 15.56° C | 77% | 1015.8 hPa | 0 mm | - | 176 W/m² | - |
| 1778008022 | 15.56° C | 77% | 1015.7 hPa | 0 mm | - | 187 W/m² | - |
| 1778007722 | 15.56° C | 77% | 1015.7 hPa | 0 mm | - | 167 W/m² | - |
| 1778007419 | 15.56° C | 78% | 1015.7 hPa | 0 mm | - | 147 W/m² | - |
| 1778007115 | 15° C | 77% | 1015.7 hPa | 0 mm | - | 143 W/m² | - |
| 1778006812 | 15.56° C | 78% | 1015.7 hPa | 0 mm | - | 150 W/m² | - |
| 1778006509 | 15.56° C | 77% | 1015.5 hPa | 0 mm | - | 157 W/m² | - |
| 1778006206 | 15° C | 78% | 1015.5 hPa | 0 mm | - | 156 W/m² | - |
| 1778005903 | 14.44° C | 80% | 1015.8 hPa | 0 mm | - | 150 W/m² | - |
| 1778005599 | 14.44° C | 80% | 1015.6 hPa | 0 mm | - | 147 W/m² | - |
| 1778005296 | 14.44° C | 80% | 1015.8 hPa | 0 mm | - | 145 W/m² | - |
| 1778004992 | 15° C | 80% | 1015.7 hPa | 0 mm | - | 150 W/m² | - |
| 1778004691 | 15° C | 79% | 1015.7 hPa | 0 mm | - | 174 W/m² | - |
| 1778004386 | 15.56° C | 77% | 1015.7 hPa | 0 mm | - | 208 W/m² | - |
| 1778004084 | 14.44° C | 79% | 1015.1 hPa | 0 mm | - | 288 W/m² | - |
| 1778003780 | 14.44° C | 81% | 1015.4 hPa | 0 mm | - | 245 W/m² | - |
| 1778003476 | 14.44° C | 81% | 1015.3 hPa | 0 mm | - | 168 W/m² | - |
| 1778003173 | 14.44° C | 79% | 1015.6 hPa | 0 mm | - | 145 W/m² | - |
* Rain latest hour (hover to see other rain measurements)
** Current wind speed in m/s (hover to see current wind gust speed)